createdAt,value
2022-12-13T00:00:22.917Z,98.69
2022-12-13T00:05:24.747Z,98.70
2022-12-13T00:10:26.864Z,98.58
2022-12-13T00:15:28.588Z,98.47
2022-12-13T00:20:30.406Z,98.47
2022-12-13T00:25:33.725Z,98.34
2022-12-13T00:30:35.905Z,98.37
2022-12-13T00:35:42.131Z,98.53
2022-12-13T00:40:43.964Z,98.24
2022-12-13T00:45:45.708Z,98.15
2022-12-13T00:50:47.482Z,98.32
2022-12-13T00:55:49.251Z,98.08
2022-12-13T01:00:50.949Z,98.18
2022-12-13T01:11:16.207Z,98.12
2022-12-13T01:16:18.831Z,97.96
2022-12-13T01:21:22.307Z,97.97
2022-12-13T01:26:24.183Z,97.93
2022-12-13T01:31:26.636Z,97.99
2022-12-13T01:36:28.590Z,97.94
2022-12-13T01:41:32.443Z,97.90
2022-12-13T01:46:36.094Z,98.05
2022-12-13T01:51:55.975Z,98.05
2022-12-13T01:57:00.847Z,97.92
2022-12-13T02:02:03.381Z,97.64
2022-12-13T02:07:06.267Z,97.72
2022-12-13T02:12:08.580Z,98.09
2022-12-13T02:17:26.760Z,98.16
2022-12-13T02:22:56.566Z,97.76
2022-12-13T02:28:39.531Z,97.75
2022-12-13T02:34:07.541Z,97.92
2022-12-13T02:39:29.726Z,97.89
2022-12-13T02:44:51.314Z,97.77
2022-12-13T02:49:57.443Z,98.03
2022-12-13T02:54:59.500Z,97.65
2022-12-13T03:00:08.432Z,97.45
2022-12-13T03:05:42.439Z,97.52
2022-12-13T03:11:08.726Z,97.40
2022-12-13T03:16:24.271Z,97.31
2022-12-13T03:21:26.505Z,97.35
2022-12-13T03:26:28.170Z,97.07
2022-12-13T03:31:29.892Z,96.98
2022-12-13T03:36:32.124Z,96.88
2022-12-13T03:41:33.954Z,97.04
2022-12-13T03:46:35.818Z,97.12
2022-12-13T03:51:37.575Z,97.33
2022-12-13T03:56:39.233Z,97.32
2022-12-13T04:01:41.096Z,97.26
2022-12-13T04:06:42.898Z,96.94
2022-12-13T04:12:03.172Z,96.64
2022-12-13T04:17:04.723Z,96.65
2022-12-13T04:22:06.390Z,96.54
2022-12-13T04:27:08.166Z,96.46
2022-12-13T04:32:26.463Z,96.36
2022-12-13T04:37:30.345Z,96.57
2022-12-13T04:42:32.075Z,96.60
2022-12-13T04:47:33.740Z,96.58
2022-12-13T04:52:35.409Z,96.70
2022-12-13T04:57:37.095Z,96.68
2022-12-13T05:02:41.582Z,96.34
2022-12-13T05:07:45.129Z,96.17
2022-12-13T05:12:46.754Z,95.80
2022-12-13T05:17:48.456Z,96.05
2022-12-13T05:22:50.128Z,96.08
2022-12-13T05:27:57.035Z,96.36
2022-12-13T05:32:58.950Z,96.40
2022-12-13T05:38:00.919Z,96.10
2022-12-13T05:43:02.556Z,96.29
2022-12-13T05:48:04.362Z,96.09
2022-12-13T05:53:07.187Z,96.02
2022-12-13T05:58:13.255Z,95.89
2022-12-13T06:03:15.427Z,95.93
2022-12-13T06:08:24.757Z,96.02
2022-12-13T06:13:32.186Z,96.30
2022-12-13T06:18:35.462Z,96.33
2022-12-13T06:23:37.151Z,96.59
2022-12-13T06:28:38.858Z,96.76
2022-12-13T06:33:40.554Z,96.56
2022-12-13T06:38:43.170Z,96.57
2022-12-13T06:43:47.670Z,96.78
2022-12-13T06:48:49.945Z,96.95
2022-12-13T06:53:52.537Z,96.82
2022-12-13T06:58:54.263Z,96.94
2022-12-13T07:04:03.798Z,96.55
2022-12-13T07:09:05.436Z,96.67
2022-12-13T07:14:07.699Z,96.62
2022-12-13T07:19:22.623Z,96.23
2022-12-13T07:24:26.154Z,96.46
2022-12-13T07:29:27.821Z,96.55
2022-12-13T07:34:30.508Z,96.43
2022-12-13T07:39:32.443Z,96.57
2022-12-13T07:44:34.080Z,96.24
2022-12-13T07:49:35.833Z,95.79
2022-12-13T07:54:37.538Z,95.47
2022-12-13T07:59:39.179Z,95.45
2022-12-13T08:04:42.981Z,95.57
2022-12-13T08:09:48.113Z,96.58
2022-12-13T08:14:55.259Z,97.30
2022-12-13T08:19:56.897Z,95.59
2022-12-13T08:24:58.597Z,95.13
2022-12-13T08:30:00.330Z,95.49
2022-12-13T08:35:01.997Z,95.54
2022-12-13T08:40:06.244Z,95.36
2022-12-13T08:45:08.636Z,95.60
2022-12-13T08:50:10.226Z,95.30
2022-12-13T08:55:13.838Z,94.90
2022-12-13T09:00:18.308Z,94.59
2022-12-13T09:05:33.658Z,94.49
2022-12-13T09:10:38.638Z,94.21
2022-12-13T09:15:46.157Z,93.93
2022-12-13T09:20:48.311Z,92.23
2022-12-13T09:26:05.705Z,92.38
2022-12-13T09:31:09.773Z,92.17
2022-12-13T09:36:18.016Z,92.26
2022-12-13T09:41:29.736Z,92.57
2022-12-13T09:46:44.926Z,91.24
2022-12-13T09:52:10.146Z,91.18
2022-12-13T09:57:34.158Z,90.86
2022-12-13T10:02:44.378Z,91.11
2022-12-13T10:07:46.327Z,91.59
2022-12-13T10:12:55.722Z,91.36
2022-12-13T10:17:59.680Z,91.68
2022-12-13T10:23:31.514Z,90.78
2022-12-13T10:28:31.496Z,89.74
2022-12-13T10:33:41.646Z,90.78
2022-12-13T10:38:45.945Z,89.96
2022-12-13T10:44:08.675Z,90.21
2022-12-13T10:49:19.823Z,88.98
2022-12-13T10:54:38.705Z,88.77
2022-12-13T10:59:50.896Z,88.26
2022-12-13T11:04:52.521Z,88.14
2022-12-13T11:09:54.256Z,88.22
2022-12-13T11:15:06.187Z,88.28
2022-12-13T11:20:19.579Z,88.52
2022-12-13T11:25:28.604Z,88.28
2022-12-13T11:31:01.538Z,88.54
2022-12-13T11:36:32.841Z,87.38
2022-12-13T11:41:40.389Z,87.69
2022-12-13T11:46:46.395Z,86.86
2022-12-13T11:51:58.092Z,85.74
2022-12-13T11:57:07.992Z,85.72
2022-12-13T12:02:32.331Z,86.47
2022-12-13T12:07:58.421Z,86.46
2022-12-13T12:13:23.445Z,86.22
2022-12-13T12:18:25.498Z,85.19
2022-12-13T12:23:58.948Z,85.96
2022-12-13T12:29:28.774Z,85.17
2022-12-13T12:35:04.823Z,85.17
2022-12-13T12:40:18.869Z,85.64
2022-12-13T12:46:00.179Z,85.72
2022-12-13T12:51:10.840Z,85.63
2022-12-13T12:56:19.703Z,86.10
2022-12-13T13:01:43.704Z,85.67
2022-12-13T13:06:50.060Z,85.91
2022-12-13T13:11:57.380Z,86.26
2022-12-13T13:17:20.617Z,86.91
2022-12-13T13:22:32.409Z,86.12
2022-12-13T13:27:42.737Z,86.09
2022-12-13T13:32:44.408Z,85.84
2022-12-13T13:37:48.678Z,86.19
2022-12-13T13:43:05.571Z,85.46
2022-12-13T13:48:37.028Z,84.87
2022-12-13T13:54:03.921Z,84.99
2022-12-13T13:59:38.106Z,85.16
2022-12-13T14:05:18.398Z,84.87
2022-12-13T14:10:32.290Z,85.28
2022-12-13T14:16:12.055Z,85.35
2022-12-13T14:21:26.586Z,84.97
2022-12-13T14:27:16.219Z,85.06
2022-12-13T14:32:31.476Z,84.92
2022-12-13T14:37:38.489Z,85.06
2022-12-13T14:42:41.723Z,85.57
2022-12-13T14:47:50.359Z,86.10
2022-12-13T14:52:53.297Z,86.41
2022-12-13T14:57:57.532Z,86.44
2022-12-13T15:03:01.446Z,86.67
2022-12-13T15:08:11.003Z,87.18
2022-12-13T15:13:22.955Z,87.33
2022-12-13T15:18:25.527Z,87.79
2022-12-13T15:23:49.668Z,87.74
2022-12-13T15:29:14.730Z,87.91
2022-12-13T15:34:37.605Z,88.07
2022-12-13T15:39:48.097Z,88.10
2022-12-13T15:44:54.943Z,88.51
2022-12-13T15:49:59.361Z,88.75
2022-12-13T15:55:06.774Z,88.91
2022-12-13T16:00:30.842Z,89.20
2022-12-13T16:05:37.215Z,89.33
2022-12-13T16:10:39.015Z,89.23
2022-12-13T16:16:26.968Z,89.21
2022-12-13T16:21:30.191Z,89.26
2022-12-13T16:26:34.132Z,89.34
2022-12-13T16:31:36.243Z,89.46
2022-12-13T16:36:38.662Z,89.53
2022-12-13T16:41:45.837Z,89.45
2022-12-13T16:47:16.835Z,89.63
2022-12-13T16:52:09.287Z,89.83
2022-12-13T16:57:11.067Z,89.74
2022-12-13T17:02:17.433Z,89.50
2022-12-13T17:07:19.260Z,89.71
2022-12-13T17:12:21.108Z,89.91
2022-12-13T17:17:22.954Z,89.98
2022-12-13T17:22:24.720Z,90.16
2022-12-13T17:27:26.667Z,90.48
2022-12-13T17:32:29.572Z,90.51
2022-12-13T17:37:32.304Z,90.52
2022-12-13T17:42:34.983Z,90.57
2022-12-13T17:47:38.729Z,90.58
2022-12-13T17:52:40.648Z,90.84
2022-12-13T17:57:42.324Z,90.89
2022-12-13T18:02:55.328Z,91.08
2022-12-13T18:07:58.126Z,91.19
2022-12-13T18:13:00.475Z,91.49
2022-12-13T18:18:12.488Z,91.79
2022-12-13T18:23:15.963Z,92.02
2022-12-13T18:28:18.554Z,91.92
2022-12-13T18:33:20.576Z,92.08
2022-12-13T18:38:24.389Z,92.23
2022-12-13T18:43:26.629Z,92.32
2022-12-13T18:48:32.313Z,92.42
2022-12-13T18:53:35.402Z,92.37
2022-12-13T18:58:39.783Z,92.55
2022-12-13T19:03:47.470Z,92.47
2022-12-13T19:08:51.757Z,92.36
2022-12-13T19:13:54.013Z,92.04
2022-12-13T19:18:57.481Z,91.74
2022-12-13T19:24:01.312Z,91.60
2022-12-13T19:29:03.742Z,91.80
2022-12-13T19:34:05.791Z,91.71
2022-12-13T19:39:07.807Z,91.93
2022-12-13T19:44:10.113Z,92.29
2022-12-13T19:49:13.813Z,92.60
2022-12-13T19:54:16.070Z,92.90
2022-12-13T19:59:18.121Z,92.70
2022-12-13T20:04:20.535Z,91.85
2022-12-13T20:09:22.630Z,90.81
2022-12-13T20:14:25.601Z,90.39
2022-12-13T20:19:28.027Z,90.60
2022-12-13T20:24:30.012Z,90.92
2022-12-13T20:29:32.573Z,90.78
2022-12-13T20:34:35.012Z,91.24
2022-12-13T20:39:37.048Z,91.17
2022-12-13T20:44:39.066Z,91.24
2022-12-13T20:49:41.076Z,91.08
2022-12-13T20:54:43.176Z,91.13
2022-12-13T20:59:44.945Z,91.37
2022-12-13T21:04:46.711Z,91.67
2022-12-13T21:09:48.471Z,92.30
2022-12-13T21:14:50.246Z,92.52
2022-12-13T21:19:52.115Z,92.12
2022-12-13T21:24:55.389Z,92.51
2022-12-13T21:29:57.186Z,93.11
2022-12-13T21:34:59.005Z,93.39
2022-12-13T21:40:00.880Z,93.39
2022-12-13T21:45:02.795Z,93.34
2022-12-13T21:50:04.944Z,92.83
2022-12-13T21:55:37.870Z,92.80
2022-12-13T22:00:30.269Z,92.71
2022-12-13T22:05:32.134Z,92.74
2022-12-13T22:10:33.922Z,92.47
2022-12-13T22:15:35.725Z,92.29
2022-12-13T22:20:37.669Z,92.19
2022-12-13T22:25:39.522Z,92.07
2022-12-13T22:30:41.634Z,92.20
2022-12-13T22:35:43.430Z,92.29
2022-12-13T22:40:45.263Z,92.37
2022-12-13T22:45:47.105Z,92.35
2022-12-13T22:50:48.938Z,92.34
2022-12-13T22:55:51.236Z,92.04
2022-12-13T23:00:53.136Z,91.89
2022-12-13T23:05:54.949Z,91.82
2022-12-13T23:11:18.236Z,91.93
2022-12-13T23:16:21.982Z,92.25
2022-12-13T23:21:25.159Z,92.77
2022-12-13T23:26:29.812Z,92.91
2022-12-13T23:31:36.244Z,92.89
2022-12-13T23:36:38.179Z,92.96
2022-12-13T23:41:40.071Z,92.75
2022-12-13T23:46:42.125Z,92.57
2022-12-13T23:51:50.633Z,92.52
2022-12-13T23:56:52.468Z,92.18
